createdAt,value
2023-03-17T00:01:58.405Z,65012.50
2023-03-17T00:07:02.894Z,64978.00
2023-03-17T00:12:11.797Z,64900.53
2023-03-17T00:17:17.510Z,64901.59
2023-03-17T00:22:23.070Z,64941.28
2023-03-17T00:27:28.378Z,64908.78
2023-03-17T00:32:34.361Z,64948.81
2023-03-17T00:37:39.704Z,64944.34
2023-03-17T00:42:45.284Z,64938.06
2023-03-17T00:47:52.383Z,65055.50
2023-03-17T00:52:59.161Z,65089.81
2023-03-17T00:58:03.383Z,65138.91
2023-03-17T01:03:13.244Z,65028.22
2023-03-17T01:08:18.489Z,64996.03
2023-03-17T01:13:23.114Z,64957.06
2023-03-17T01:18:28.793Z,65066.66
2023-03-17T01:23:33.312Z,65156.44
2023-03-17T01:28:37.505Z,65039.59
2023-03-17T01:33:43.069Z,65024.81
2023-03-17T01:38:48.227Z,64966.31
2023-03-17T01:43:54.888Z,64921.22
2023-03-17T01:49:24.435Z,64914.84
2023-03-17T01:54:34.846Z,64992.84
2023-03-17T01:59:44.377Z,64915.16
2023-03-17T02:04:50.886Z,64890.34
2023-03-17T02:09:55.983Z,64978.94
2023-03-17T02:15:00.357Z,65029.50
2023-03-17T02:20:34.631Z,64898.41
2023-03-17T02:25:42.474Z,64992.22
2023-03-17T02:30:48.644Z,65066.66
2023-03-17T02:35:56.692Z,64982.78
2023-03-17T02:41:02.605Z,65036.81
2023-03-17T02:46:07.762Z,65106.94
2023-03-17T02:51:12.410Z,64967.91
2023-03-17T02:56:18.143Z,65089.91
2023-03-17T03:01:22.705Z,65091.41
2023-03-17T03:06:34.837Z,65109.81
2023-03-17T03:11:42.792Z,65000.28
2023-03-17T03:16:47.981Z,65075.16
2023-03-17T03:21:52.249Z,64955.06
2023-03-17T03:26:57.989Z,64914.31
2023-03-17T03:32:03.341Z,64870.63
2023-03-17T03:37:08.416Z,64844.88
2023-03-17T03:42:16.626Z,64833.59
2023-03-17T03:47:21.139Z,64771.50
2023-03-17T03:52:25.468Z,64777.31
2023-03-17T03:57:34.136Z,64763.66
2023-03-17T04:02:39.275Z,64750.22
2023-03-17T04:07:44.440Z,64803.81
2023-03-17T04:12:50.078Z,64806.59
2023-03-17T04:17:55.147Z,64794.28
2023-03-17T04:22:59.253Z,64904.78
2023-03-17T04:28:05.035Z,64909.56
2023-03-17T04:33:08.996Z,64843.38
2023-03-17T04:38:14.430Z,64821.53
2023-03-17T04:43:20.221Z,64816.13
2023-03-17T04:48:24.042Z,64912.19
2023-03-17T04:53:28.720Z,64972.06
2023-03-17T04:58:34.406Z,65065.50
2023-03-17T05:03:38.911Z,65087.78
2023-03-17T05:08:44.984Z,65088.22
2023-03-17T05:13:50.642Z,65170.91
2023-03-17T05:18:55.314Z,65275.91
2023-03-17T05:23:59.526Z,65331.34
2023-03-17T05:29:05.239Z,65262.28
2023-03-17T05:34:09.957Z,65282.50
2023-03-17T05:39:14.781Z,65157.50
2023-03-17T05:44:20.505Z,65108.00
2023-03-17T05:49:24.683Z,65134.44
2023-03-17T05:54:29.116Z,65213.88
2023-03-17T05:59:35.312Z,65270.69
2023-03-17T06:04:41.283Z,65379.38
2023-03-17T06:09:47.061Z,65387.34
2023-03-17T06:14:54.115Z,65380.97
2023-03-17T06:19:58.023Z,65422.97
2023-03-17T06:25:02.366Z,65496.06
2023-03-17T06:30:10.242Z,65561.00
2023-03-17T06:35:16.848Z,65542.97
2023-03-17T06:40:23.495Z,65532.28
2023-03-17T06:45:29.926Z,65559.94
2023-03-17T06:50:34.710Z,65601.19
2023-03-17T06:55:38.913Z,65527.59
2023-03-17T07:00:45.676Z,65608.47
2023-03-17T07:05:50.088Z,65609.66
2023-03-17T07:10:57.411Z,65640.16
2023-03-17T07:16:06.727Z,65699.31
2023-03-17T07:21:11.045Z,65698.78
2023-03-17T07:26:15.260Z,65718.19
2023-03-17T07:31:20.920Z,65790.09
2023-03-17T07:36:25.398Z,65878.94
2023-03-17T07:41:30.174Z,65936.16
2023-03-17T07:46:37.091Z,65842.69
2023-03-17T07:51:43.297Z,65833.84
2023-03-17T07:56:47.853Z,65830.84
2023-03-17T08:01:58.184Z,65886.34
2023-03-17T08:07:03.353Z,65889.53
2023-03-17T08:12:10.098Z,65907.28
2023-03-17T08:17:17.190Z,65869.75
2023-03-17T08:22:21.477Z,65943.03
2023-03-17T08:27:25.867Z,65952.22
2023-03-17T08:32:31.692Z,66028.84
2023-03-17T08:37:39.110Z,66009.91
2023-03-17T08:42:43.345Z,66021.78
2023-03-17T08:47:49.280Z,65985.28
2023-03-17T08:52:55.873Z,65899.63
2023-03-17T08:58:00.203Z,65939.91
2023-03-17T09:03:06.995Z,65940.44
2023-03-17T09:08:12.086Z,65960.69
2023-03-17T09:13:16.655Z,65911.38
2023-03-17T09:18:22.616Z,65991.91
2023-03-17T09:23:27.228Z,65994.94
2023-03-17T09:28:32.001Z,65991.09
2023-03-17T09:33:37.616Z,66023.38
2023-03-17T09:38:41.815Z,65975.66
2023-03-17T09:43:55.676Z,66005.28
2023-03-17T09:49:05.028Z,66051.06
2023-03-17T09:54:15.719Z,66064.19
2023-03-17T09:59:31.072Z,66034.09
2023-03-17T10:04:37.278Z,66082.22
2023-03-17T10:09:47.807Z,66083.38
2023-03-17T10:14:59.644Z,66146.56
2023-03-17T10:20:10.446Z,66130.88
2023-03-17T10:25:17.696Z,66065.78
2023-03-17T10:30:24.116Z,66161.13
2023-03-17T10:35:36.283Z,66156.59
2023-03-17T10:40:41.764Z,66183.03
2023-03-17T10:45:59.964Z,66112.22
2023-03-17T10:51:08.853Z,66094.63
2023-03-17T10:56:23.653Z,66081.84
2023-03-17T11:01:31.415Z,66162.03
2023-03-17T11:06:42.423Z,66168.53
2023-03-17T11:11:48.884Z,66171.66
2023-03-17T11:16:56.137Z,66102.03
2023-03-17T11:22:10.009Z,66190.88
2023-03-17T11:27:25.505Z,66287.13
2023-03-17T11:32:38.696Z,66296.06
2023-03-17T11:38:00.987Z,66290.88
2023-03-17T11:43:24.010Z,66283.38
2023-03-17T11:48:39.570Z,66218.84
2023-03-17T11:54:01.804Z,66362.06
2023-03-17T11:59:13.114Z,66524.25
2023-03-17T12:04:23.631Z,66621.16
2023-03-17T12:09:35.308Z,66534.00
2023-03-17T12:14:45.315Z,66719.47
2023-03-17T12:20:05.815Z,66828.81
2023-03-17T12:25:18.217Z,66821.44
2023-03-17T12:30:29.392Z,66781.41
2023-03-17T12:35:37.009Z,66730.28
2023-03-17T12:41:03.029Z,66691.03
2023-03-17T12:46:30.994Z,66786.81
2023-03-17T12:51:53.341Z,66918.31
2023-03-17T12:57:05.022Z,66873.50
2023-03-17T13:06:08.730Z,66690.94
2023-03-17T13:11:19.116Z,66717.31
2023-03-17T13:16:33.296Z,66667.78
2023-03-17T13:21:40.082Z,66668.44
2023-03-17T13:26:55.533Z,66485.66
2023-03-17T13:32:31.983Z,66561.97
2023-03-17T13:37:54.775Z,66521.09
2023-03-17T13:43:16.323Z,66508.75
2023-03-17T13:48:32.300Z,66349.72
2023-03-17T13:53:41.433Z,66415.38
2023-03-17T13:58:54.503Z,66319.69
2023-03-17T14:03:58.870Z,66351.50
2023-03-17T14:09:10.010Z,66490.56
2023-03-17T14:14:32.951Z,66393.75
2023-03-17T14:19:41.589Z,66399.09
2023-03-17T14:24:47.484Z,66296.78
2023-03-17T14:29:52.478Z,66272.41
2023-03-17T14:34:59.512Z,66376.09
2023-03-17T14:40:05.942Z,66262.91
2023-03-17T14:45:20.720Z,66352.94
2023-03-17T14:50:29.237Z,66262.38
2023-03-17T14:55:43.062Z,66295.09
2023-03-17T15:00:57.186Z,66225.44
2023-03-17T15:06:08.421Z,66186.16
2023-03-17T15:11:20.816Z,66242.88
2023-03-17T15:16:29.482Z,66132.72
2023-03-17T15:21:36.629Z,66165.94
2023-03-17T15:26:42.298Z,66145.34
2023-03-17T15:31:48.006Z,66081.41
2023-03-17T15:36:52.140Z,66081.41
2023-03-17T15:41:57.759Z,66052.31
2023-03-17T15:47:02.663Z,66071.50
2023-03-17T15:52:16.166Z,66169.00
2023-03-17T15:57:22.318Z,66180.59
2023-03-17T16:02:30.699Z,66177.56
2023-03-17T16:07:35.422Z,66146.50
2023-03-17T16:12:41.810Z,66015.81
2023-03-17T16:17:47.157Z,66036.13
2023-03-17T16:22:53.143Z,65983.16
2023-03-17T16:28:02.360Z,65996.72
2023-03-17T16:33:18.053Z,66062.84
2023-03-17T16:38:24.198Z,66008.84
2023-03-17T16:43:31.643Z,66016.97
2023-03-17T16:48:36.230Z,66002.50
2023-03-17T16:53:40.859Z,65969.41
2023-03-17T16:58:47.005Z,65986.47
2023-03-17T17:03:51.469Z,66039.44
2023-03-17T17:08:55.621Z,65945.28
2023-03-17T17:14:01.375Z,65979.94
2023-03-17T17:19:13.811Z,65965.06
2023-03-17T17:24:17.980Z,65905.06
2023-03-17T17:29:23.726Z,65930.81
2023-03-17T17:34:28.052Z,65936.50
2023-03-17T17:39:33.269Z,65943.03
2023-03-17T17:44:39.301Z,65958.56
2023-03-17T17:49:43.357Z,65984.88
2023-03-17T17:54:49.176Z,65898.03
2023-03-17T17:59:54.902Z,65881.53
2023-03-17T18:05:01.959Z,65922.69
2023-03-17T18:10:07.310Z,65922.16
2023-03-17T18:15:13.722Z,65932.31
2023-03-17T18:20:19.690Z,65836.63
2023-03-17T18:25:25.509Z,65866.19
2023-03-17T18:30:35.148Z,65854.34
2023-03-17T18:35:41.328Z,65855.13
2023-03-17T18:40:46.123Z,65854.97
2023-03-17T18:45:52.307Z,65814.09
2023-03-17T18:50:57.253Z,65849.97
2023-03-17T18:56:03.031Z,65827.97
2023-03-17T19:01:18.864Z,65813.97
2023-03-17T19:06:26.940Z,65814.81
2023-03-17T19:11:31.752Z,65809.47
2023-03-17T19:16:37.587Z,65761.25
2023-03-17T19:21:42.323Z,65810.53
2023-03-17T19:26:46.804Z,65808.41
2023-03-17T19:31:53.257Z,65787.88
2023-03-17T19:36:57.796Z,65769.81
2023-03-17T19:42:02.703Z,65758.59
2023-03-17T19:47:10.285Z,65713.81
2023-03-17T19:52:14.870Z,65768.31
2023-03-17T19:57:35.315Z,65690.94
2023-03-17T20:03:09.321Z,65715.22
2023-03-17T20:08:34.288Z,65690.31
2023-03-17T20:13:56.114Z,65719.69
2023-03-17T20:19:45.423Z,65747.91
2023-03-17T20:54:41.971Z,65755.38
2023-03-17T20:59:52.788Z,65704.13
2023-03-17T21:04:58.960Z,65701.53
2023-03-17T21:10:08.440Z,65682.84
2023-03-17T21:15:14.161Z,65685.34
2023-03-17T21:20:21.354Z,65662.47
2023-03-17T21:52:19.169Z,65689.78
